createdAt,value
2022-12-04T00:01:24.066Z,55.59
2022-12-04T00:03:54.432Z,55.56
2022-12-04T00:06:23.211Z,55.74
2022-12-04T00:08:52.337Z,55.81
2022-12-04T00:11:22.368Z,55.79
2022-12-04T00:13:50.626Z,55.97
2022-12-04T00:16:22.005Z,55.90
2022-12-04T00:18:50.374Z,55.90
2022-12-04T00:21:19.981Z,55.86
2022-12-04T00:23:48.568Z,55.90
2022-12-04T00:26:18.713Z,55.86
2022-12-04T00:28:47.318Z,55.75
2022-12-04T00:31:18.994Z,55.62
2022-12-04T00:33:48.659Z,55.54
2022-12-04T00:36:19.101Z,55.57
2022-12-04T00:38:47.454Z,55.58
2022-12-04T00:41:17.572Z,55.48
2022-12-04T00:43:45.995Z,55.45
2022-12-04T00:46:15.954Z,55.35
2022-12-04T00:48:44.797Z,55.36
2022-12-04T00:51:17.281Z,55.16
2022-12-04T00:53:45.729Z,55.26
2022-12-04T00:56:18.550Z,55.26
2022-12-04T00:58:47.250Z,55.21
2022-12-04T01:01:16.979Z,55.23
2022-12-04T01:03:45.368Z,55.16
2022-12-04T01:06:21.842Z,54.72
2022-12-04T01:08:50.637Z,55.20
2022-12-04T01:11:19.641Z,55.15
2022-12-04T01:13:48.136Z,55.06
2022-12-04T01:16:21.530Z,55.00
2022-12-04T01:18:49.909Z,55.23
2022-12-04T01:21:20.208Z,55.26
2022-12-04T01:23:48.238Z,55.35
2022-12-04T01:26:16.662Z,55.28
2022-12-04T01:28:44.730Z,55.23
2022-12-04T01:31:15.041Z,55.20
2022-12-04T01:33:44.176Z,55.20
2022-12-04T01:36:13.671Z,55.31
2022-12-04T01:38:43.678Z,55.29
2022-12-04T01:41:14.278Z,55.31
2022-12-04T01:43:43.076Z,55.28
2022-12-04T01:46:12.366Z,55.29
2022-12-04T01:48:45.234Z,55.04
2022-12-04T01:51:18.713Z,55.14
2022-12-04T01:53:51.825Z,55.34
2022-12-04T01:56:21.865Z,55.49
2022-12-04T01:58:53.506Z,55.49
2022-12-04T02:01:21.893Z,55.44
2022-12-04T02:03:50.335Z,55.29
2022-12-04T02:06:18.485Z,55.26
2022-12-04T02:08:47.981Z,55.21
2022-12-04T02:11:26.071Z,55.26
2022-12-04T02:14:02.560Z,55.32
2022-12-04T02:16:38.720Z,55.39
2022-12-04T02:19:22.551Z,55.26
2022-12-04T02:21:56.777Z,55.47
2022-12-04T02:24:46.758Z,55.21
2022-12-04T02:27:33.282Z,55.20
2022-12-04T02:30:06.480Z,55.39
2022-12-04T02:32:40.713Z,55.36
2022-12-04T02:35:14.464Z,55.65
2022-12-04T02:37:46.860Z,55.66
2022-12-04T02:40:22.555Z,55.56
2022-12-04T02:42:56.403Z,55.58
2022-12-04T02:45:32.365Z,55.60
2022-12-04T02:48:03.290Z,55.66
2022-12-04T02:50:34.204Z,55.64
2022-12-04T02:53:06.915Z,55.74
2022-12-04T02:55:40.291Z,55.64
2022-12-04T02:58:12.140Z,55.78
2022-12-04T03:00:43.361Z,55.87
2022-12-04T03:03:17.897Z,55.87
2022-12-04T03:05:52.733Z,55.97
2022-12-04T03:08:25.191Z,55.94
2022-12-04T03:10:56.551Z,55.93
2022-12-04T03:13:30.143Z,55.84
2022-12-04T03:16:05.675Z,55.83
2022-12-04T03:18:38.916Z,55.98
2022-12-04T03:21:11.056Z,55.97
2022-12-04T03:23:43.765Z,55.97
2022-12-04T03:26:17.494Z,55.92
2022-12-04T03:28:53.908Z,56.13
2022-12-04T03:31:31.074Z,56.00
2022-12-04T03:34:03.866Z,56.26
2022-12-04T03:36:35.761Z,56.29
2022-12-04T03:39:12.872Z,56.10
2022-12-04T03:41:58.117Z,55.54
2022-12-04T03:44:31.817Z,56.07
2022-12-04T03:47:05.655Z,56.11
2022-12-04T03:49:42.233Z,56.08
2022-12-04T03:52:15.490Z,56.24
2022-12-04T03:54:48.037Z,56.01
2022-12-04T03:57:20.128Z,56.35
2022-12-04T03:59:56.079Z,56.36
2022-12-04T04:02:29.672Z,56.30
2022-12-04T04:05:00.988Z,56.19
2022-12-04T04:07:36.017Z,56.00
2022-12-04T04:10:08.721Z,56.21
2022-12-04T04:12:39.928Z,56.32
2022-12-04T04:15:30.360Z,56.25
2022-12-04T04:18:15.179Z,56.26
2022-12-04T04:21:03.304Z,56.37
2022-12-04T04:23:52.668Z,56.45
2022-12-04T04:26:21.190Z,56.33
2022-12-04T04:28:49.378Z,56.40
2022-12-04T04:31:24.380Z,56.39
2022-12-04T04:33:59.965Z,56.43
2022-12-04T04:36:39.012Z,56.71
2022-12-04T04:39:14.605Z,56.86
2022-12-04T04:41:48.140Z,56.70
2022-12-04T04:44:21.176Z,56.57
2022-12-04T04:46:54.521Z,56.84
2022-12-04T04:49:27.273Z,56.81
2022-12-04T04:51:56.172Z,56.74
2022-12-04T04:54:25.208Z,56.78
2022-12-04T04:56:53.243Z,56.81
2022-12-04T04:59:21.217Z,56.78
2022-12-04T05:01:49.571Z,56.68
2022-12-04T05:04:17.701Z,57.10
2022-12-04T05:06:48.916Z,57.15
2022-12-04T05:09:16.928Z,57.03
2022-12-04T05:11:44.939Z,56.99
2022-12-04T05:14:12.903Z,56.88
2022-12-04T05:16:41.691Z,57.02
2022-12-04T05:19:27.395Z,57.00
2022-12-04T05:21:57.577Z,57.10
2022-12-04T05:24:25.668Z,57.42
2022-12-04T05:26:53.660Z,57.32
2022-12-04T05:29:21.724Z,57.19
2022-12-04T05:31:49.738Z,57.06
2022-12-04T05:34:17.775Z,57.11
2022-12-04T05:36:45.758Z,56.91
2022-12-04T05:39:15.422Z,57.14
2022-12-04T05:41:43.428Z,57.26
2022-12-04T05:44:11.499Z,57.20
2022-12-04T05:46:39.547Z,57.29
2022-12-04T05:49:07.655Z,57.26
2022-12-04T05:51:35.709Z,57.45
2022-12-04T05:54:03.688Z,57.52
2022-12-04T05:56:33.066Z,57.61
2022-12-04T05:59:01.077Z,57.51
2022-12-04T06:01:29.125Z,57.64
2022-12-04T06:03:57.134Z,57.57
2022-12-04T06:06:26.642Z,57.55
2022-12-04T06:08:56.977Z,57.55
2022-12-04T06:11:27.021Z,57.43
2022-12-04T06:13:57.673Z,57.48
2022-12-04T06:16:27.775Z,57.53
2022-12-04T06:18:59.257Z,57.45
2022-12-04T06:21:29.112Z,57.48
2022-12-04T06:23:57.829Z,57.60
2022-12-04T06:26:26.604Z,57.64
2022-12-04T06:28:56.847Z,57.75
2022-12-04T06:31:25.975Z,57.73
2022-12-04T06:33:54.889Z,57.78
2022-12-04T06:36:23.374Z,57.74
2022-12-04T06:38:52.548Z,57.75
2022-12-04T06:41:22.148Z,57.93
2022-12-04T06:43:51.797Z,58.03
2022-12-04T06:46:23.649Z,57.96
2022-12-04T06:48:52.230Z,58.06
2022-12-04T06:51:23.020Z,58.31
2022-12-04T06:53:51.682Z,58.15
2022-12-04T06:56:22.028Z,58.19
2022-12-04T06:58:52.139Z,58.24
2022-12-04T07:01:24.521Z,58.25
2022-12-04T07:03:53.020Z,58.25
2022-12-04T07:06:23.080Z,58.22
2022-12-04T07:08:53.096Z,58.32
2022-12-04T07:11:22.463Z,58.27
2022-12-04T07:13:51.333Z,58.15
2022-12-04T07:16:23.990Z,58.29
2022-12-04T07:18:53.872Z,58.35
2022-12-04T07:21:23.883Z,58.23
2022-12-04T07:23:53.263Z,58.44
2022-12-04T07:26:22.149Z,58.36
2022-12-04T07:28:50.461Z,58.40
2022-12-04T07:31:20.640Z,58.21
2022-12-04T07:33:50.857Z,58.46
2022-12-04T07:36:20.608Z,58.55
2022-12-04T07:38:48.969Z,58.32
2022-12-04T07:41:17.548Z,58.68
2022-12-04T07:43:45.955Z,58.42
2022-12-04T07:46:15.873Z,58.15
2022-12-04T07:48:44.541Z,58.47
2022-12-04T07:51:16.097Z,58.45
2022-12-04T07:53:44.572Z,58.19
2022-12-04T07:56:13.742Z,58.17
2022-12-04T07:58:42.155Z,58.38
2022-12-04T08:01:12.446Z,58.17
2022-12-04T08:03:46.832Z,58.25
2022-12-04T08:06:18.550Z,58.09
2022-12-04T08:08:46.997Z,58.22
2022-12-04T08:11:17.904Z,58.29
2022-12-04T08:13:46.144Z,58.40
2022-12-04T08:16:15.569Z,58.14
2022-12-04T08:18:48.445Z,58.00
2022-12-04T08:21:20.658Z,57.67
2022-12-04T08:23:50.137Z,57.82
2022-12-04T08:26:18.637Z,57.93
2022-12-04T08:28:47.272Z,57.92
2022-12-04T08:31:17.749Z,57.77
2022-12-04T08:33:46.956Z,57.78
2022-12-04T08:36:19.241Z,57.64
2022-12-04T08:38:47.432Z,58.39
2022-12-04T08:41:17.262Z,57.51
2022-12-04T08:43:45.700Z,57.84
2022-12-04T08:46:15.823Z,57.77
2022-12-04T08:48:44.317Z,57.62
2022-12-04T08:51:15.095Z,57.22
2022-12-04T08:53:44.897Z,57.13
2022-12-04T08:56:13.342Z,57.13
2022-12-04T08:58:41.524Z,57.01
2022-12-04T09:01:11.459Z,56.96
2022-12-04T09:03:40.070Z,56.71
2022-12-04T09:06:10.057Z,57.07
2022-12-04T09:08:38.910Z,57.01
2022-12-04T09:11:11.212Z,56.88
2022-12-04T09:13:40.273Z,56.95
2022-12-04T09:16:10.806Z,56.77
2022-12-04T09:18:39.548Z,56.84
2022-12-04T09:21:09.940Z,56.76
2022-12-04T09:23:39.549Z,56.61
2022-12-04T09:26:19.463Z,56.10
2022-12-04T09:28:47.711Z,56.42
2022-12-04T09:31:16.034Z,56.52
2022-12-04T09:33:44.346Z,56.35
2022-12-04T09:36:16.137Z,55.87
2022-12-04T09:38:45.442Z,55.91
2022-12-04T09:41:30.533Z,55.48
2022-12-04T09:44:03.332Z,55.87
2022-12-04T09:46:35.229Z,55.79
2022-12-04T09:49:08.086Z,55.48
2022-12-04T09:51:38.534Z,54.88
2022-12-04T09:54:11.985Z,55.22
2022-12-04T09:56:44.591Z,55.07
2022-12-04T09:59:16.127Z,54.78
2022-12-04T10:01:48.335Z,54.66
2022-12-04T10:04:17.204Z,54.65
2022-12-04T10:06:50.346Z,54.49
2022-12-04T10:09:23.260Z,54.38
2022-12-04T10:12:00.961Z,54.32
2022-12-04T10:14:47.867Z,53.99
2022-12-04T10:17:33.007Z,53.94
2022-12-04T10:20:12.832Z,53.75
2022-12-04T10:22:54.768Z,53.70
2022-12-04T10:25:24.636Z,53.75
2022-12-04T10:27:57.371Z,53.91
2022-12-04T10:30:27.851Z,53.89
2022-12-04T10:33:04.497Z,53.74
2022-12-04T10:35:34.259Z,53.62
2022-12-04T10:38:06.141Z,53.38
2022-12-04T10:40:38.938Z,53.84
2022-12-04T10:43:18.560Z,53.59
2022-12-04T10:45:46.576Z,53.77
2022-12-04T10:48:22.404Z,53.48
2022-12-04T10:50:50.495Z,53.64
2022-12-04T10:53:22.098Z,53.61
2022-12-04T10:55:50.133Z,53.83
2022-12-04T10:58:21.051Z,53.84
2022-12-04T11:01:02.829Z,53.72
2022-12-04T11:03:31.099Z,53.98
2022-12-04T11:06:02.040Z,53.97
2022-12-04T11:08:36.344Z,53.98
2022-12-04T11:11:07.260Z,53.91
2022-12-04T11:13:36.629Z,53.76
2022-12-04T11:16:06.393Z,53.81
2022-12-04T11:18:36.581Z,53.73
2022-12-04T11:21:08.172Z,53.88
2022-12-04T11:23:44.324Z,53.62
2022-12-04T11:26:13.248Z,53.80
2022-12-04T11:28:55.208Z,53.54
2022-12-04T11:31:24.113Z,54.05
2022-12-04T11:33:55.136Z,53.84
2022-12-04T11:36:25.828Z,53.50
2022-12-04T11:39:03.693Z,53.92
2022-12-04T11:41:33.506Z,54.01
2022-12-04T11:44:02.860Z,54.01
2022-12-04T11:46:34.201Z,53.86
2022-12-04T11:49:03.407Z,54.14
2022-12-04T11:51:44.393Z,54.05
2022-12-04T11:54:24.815Z,53.99
2022-12-04T11:57:04.734Z,53.91
2022-12-04T11:59:51.476Z,54.22
2022-12-04T12:02:57.975Z,54.05
2022-12-04T12:05:43.581Z,54.02
2022-12-04T12:08:22.235Z,54.53
2022-12-04T12:10:59.172Z,54.71
2022-12-04T12:13:36.724Z,54.49
2022-12-04T12:16:17.433Z,54.39
2022-12-04T12:19:08.691Z,54.59
2022-12-04T12:21:44.993Z,54.78
2022-12-04T12:24:25.921Z,54.78
2022-12-04T12:27:05.280Z,55.07
2022-12-04T12:29:48.068Z,54.88
2022-12-04T12:32:37.224Z,55.23
2022-12-04T12:35:14.407Z,55.17
2022-12-04T12:37:47.294Z,55.29
2022-12-04T12:40:24.246Z,55.49
2022-12-04T12:42:58.750Z,55.46
2022-12-04T12:45:34.747Z,55.36
2022-12-04T12:48:10.817Z,55.51
2022-12-04T12:50:44.639Z,55.69
2022-12-04T12:53:17.832Z,55.76
2022-12-04T12:55:48.873Z,55.81
2022-12-04T12:58:22.357Z,55.85
2022-12-04T13:00:57.460Z,55.52
2022-12-04T13:03:33.912Z,55.55
2022-12-04T13:06:07.217Z,56.18
2022-12-04T13:08:38.993Z,56.23
2022-12-04T13:11:11.601Z,56.26
2022-12-04T13:13:45.536Z,56.46
2022-12-04T13:16:18.679Z,56.41
2022-12-04T13:18:52.348Z,56.49
2022-12-04T13:21:31.989Z,56.26
2022-12-04T13:24:44.793Z,56.96
2022-12-04T13:27:23.641Z,57.09
2022-12-04T13:30:04.643Z,57.00
2022-12-04T13:32:48.981Z,56.83
2022-12-04T13:35:27.844Z,57.00
2022-12-04T13:38:13.700Z,57.04
2022-12-04T13:40:43.277Z,57.13
2022-12-04T13:43:39.754Z,56.71
2022-12-04T13:46:09.903Z,56.75
2022-12-04T13:48:40.859Z,56.70
2022-12-04T13:51:25.163Z,56.88
2022-12-04T13:54:24.851Z,56.55
2022-12-04T13:56:54.337Z,56.81
2022-12-04T13:59:35.025Z,56.84
2022-12-04T14:02:08.359Z,56.79
2022-12-04T14:04:45.524Z,56.70
2022-12-04T14:07:27.358Z,56.60
2022-12-04T14:09:57.967Z,56.72
2022-12-04T14:12:28.297Z,56.64
2022-12-04T14:14:59.198Z,57.02
2022-12-04T14:17:29.701Z,57.36
2022-12-04T14:20:04.300Z,57.03
2022-12-04T14:22:44.576Z,57.09
2022-12-04T14:25:35.698Z,56.91
2022-12-04T14:28:23.825Z,57.71
2022-12-04T14:31:04.359Z,57.37
2022-12-04T14:33:35.014Z,57.76
2022-12-04T14:36:05.460Z,57.60
2022-12-04T14:38:35.526Z,57.40
2022-12-04T14:41:05.717Z,57.36
2022-12-04T14:43:39.559Z,57.27
2022-12-04T14:46:15.847Z,57.19
2022-12-04T14:48:54.000Z,57.48
2022-12-04T14:51:29.757Z,57.42
2022-12-04T14:54:07.316Z,57.59
2022-12-04T14:56:52.035Z,57.71
2022-12-04T14:59:22.347Z,57.77
2022-12-04T15:01:52.476Z,57.97
2022-12-04T15:04:26.552Z,57.61
2022-12-04T15:06:59.917Z,57.61
2022-12-04T15:09:47.474Z,57.59
2022-12-04T15:12:35.461Z,57.64
2022-12-04T15:15:12.682Z,57.68
2022-12-04T15:17:40.735Z,57.80
2022-12-04T15:20:11.928Z,57.59
2022-12-04T15:22:40.129Z,57.52
2022-12-04T15:25:17.665Z,57.29
2022-12-04T15:27:47.567Z,57.64
2022-12-04T15:30:19.129Z,58.14
2022-12-04T15:32:49.388Z,57.61
2022-12-04T15:35:22.781Z,57.41
2022-12-04T15:37:50.992Z,57.32
2022-12-04T15:40:24.584Z,57.22
2022-12-04T15:42:53.322Z,57.26
2022-12-04T15:45:31.920Z,57.36
2022-12-04T15:47:59.969Z,57.27
2022-12-04T15:50:30.755Z,57.10
2022-12-04T15:53:02.060Z,57.19
2022-12-04T15:55:34.204Z,57.10
2022-12-04T15:58:05.579Z,57.24
2022-12-04T16:00:36.523Z,57.19
2022-12-04T16:03:08.907Z,57.29
2022-12-04T16:05:37.514Z,57.39
2022-12-04T16:08:24.953Z,57.13
2022-12-04T16:11:01.059Z,57.05
2022-12-04T16:13:31.801Z,57.26
2022-12-04T16:16:01.182Z,57.56
2022-12-04T16:18:29.875Z,57.40
2022-12-04T16:20:58.158Z,57.26
2022-12-04T16:23:26.874Z,57.42
2022-12-04T16:25:55.066Z,57.72
2022-12-04T16:28:24.458Z,57.73
2022-12-04T16:30:53.482Z,58.16
2022-12-04T16:33:21.561Z,57.72
2022-12-04T16:35:50.174Z,57.74
2022-12-04T16:38:18.928Z,57.66
2022-12-04T16:40:48.498Z,57.69
2022-12-04T16:43:18.153Z,57.50
2022-12-04T16:45:50.109Z,57.38
2022-12-04T16:48:18.623Z,57.61
2022-12-04T16:50:47.276Z,57.55
2022-12-04T16:53:18.075Z,57.77
2022-12-04T16:55:47.693Z,57.68
2022-12-04T16:58:16.995Z,58.06
2022-12-04T17:00:51.176Z,57.67
2022-12-04T17:03:24.677Z,57.75
2022-12-04T17:05:52.772Z,58.13
2022-12-04T17:08:20.840Z,58.02
2022-12-04T17:10:49.149Z,57.87
2022-12-04T17:13:18.789Z,57.90
2022-12-04T17:15:48.354Z,57.66
2022-12-04T17:18:21.033Z,57.60
2022-12-04T17:20:49.886Z,57.55
2022-12-04T17:23:18.221Z,57.77
2022-12-04T17:25:46.238Z,57.82
2022-12-04T17:28:14.332Z,57.85
2022-12-04T17:30:45.933Z,57.64
2022-12-04T17:33:15.420Z,57.61
2022-12-04T17:35:44.652Z,57.65
2022-12-04T17:38:12.754Z,57.79
2022-12-04T17:40:40.739Z,57.65
2022-12-04T17:43:08.729Z,57.70
2022-12-04T17:45:36.748Z,57.74
2022-12-04T17:48:04.922Z,57.69
2022-12-04T17:50:34.315Z,57.71
2022-12-04T17:53:02.380Z,57.93
2022-12-04T17:55:30.340Z,57.80
2022-12-04T17:57:58.472Z,57.58
2022-12-04T18:00:26.964Z,57.65
2022-12-04T18:02:55.038Z,57.67
2022-12-04T18:05:23.094Z,57.86
2022-12-04T18:07:52.454Z,57.87
2022-12-04T18:10:20.552Z,57.92
2022-12-04T18:12:48.526Z,57.85
2022-12-04T18:15:16.622Z,57.72
2022-12-04T18:17:44.626Z,57.56
2022-12-04T18:20:13.385Z,57.46
2022-12-04T18:22:41.424Z,57.64
2022-12-04T18:25:11.361Z,57.71
2022-12-04T18:27:42.047Z,57.55
2022-12-04T18:30:10.971Z,57.62
2022-12-04T18:32:38.989Z,57.74
2022-12-04T18:35:07.513Z,57.78
2022-12-04T18:37:35.596Z,57.80
2022-12-04T18:40:06.912Z,57.84
2022-12-04T18:42:36.748Z,57.71
2022-12-04T18:45:05.341Z,57.59
2022-12-04T18:47:33.369Z,57.81
2022-12-04T18:50:01.411Z,58.16
2022-12-04T18:52:29.499Z,57.96
2022-12-04T18:54:57.470Z,57.77
2022-12-04T18:57:25.519Z,57.80
2022-12-04T18:59:55.246Z,57.91
2022-12-04T19:02:23.463Z,57.96
2022-12-04T19:04:51.734Z,58.11
2022-12-04T19:07:20.091Z,57.97
2022-12-04T19:10:20.748Z,58.17
2022-12-04T19:12:36.098Z,58.27
2022-12-04T19:15:06.184Z,58.10
2022-12-04T19:17:34.384Z,57.94
2022-12-04T19:20:02.720Z,57.88
2022-12-04T19:22:30.876Z,57.83
2022-12-04T19:24:59.101Z,57.92
2022-12-04T19:27:27.677Z,58.09
2022-12-04T19:29:56.092Z,58.04
2022-12-04T19:32:26.451Z,58.16
2022-12-04T19:34:54.547Z,58.40
2022-12-04T19:37:22.623Z,58.21
2022-12-04T19:39:50.605Z,58.22
2022-12-04T19:42:18.649Z,58.02
2022-12-04T19:44:49.208Z,58.09
2022-12-04T19:47:18.486Z,58.04
2022-12-04T19:49:47.887Z,57.77
2022-12-04T19:52:16.188Z,58.18
2022-12-04T19:54:44.239Z,58.09
2022-12-04T19:57:12.871Z,58.00
2022-12-04T19:59:45.906Z,58.20
2022-12-04T20:02:14.902Z,58.22
2022-12-04T20:04:43.220Z,58.29
2022-12-04T20:07:12.960Z,58.08
2022-12-04T20:09:41.002Z,58.28
2022-12-04T20:12:09.315Z,58.01
2022-12-04T20:14:37.489Z,58.42
2022-12-04T20:17:05.616Z,58.39
2022-12-04T20:19:33.749Z,58.42
2022-12-04T20:22:01.812Z,58.14
2022-12-04T20:24:31.220Z,58.23
2022-12-04T20:26:59.244Z,58.18
2022-12-04T20:29:27.283Z,58.20
2022-12-04T20:31:55.340Z,58.14
2022-12-04T20:34:23.446Z,58.13
2022-12-04T20:36:51.461Z,58.07
2022-12-04T20:39:20.900Z,58.35
2022-12-04T20:41:50.343Z,58.37
2022-12-04T20:44:20.526Z,58.37
2022-12-04T20:46:49.776Z,58.35
2022-12-04T20:49:22.529Z,58.41
2022-12-04T20:51:52.081Z,58.64
2022-12-04T20:54:21.752Z,58.64
2022-12-04T20:56:53.278Z,58.56
2022-12-04T20:59:23.329Z,58.61
2022-12-04T21:01:52.554Z,58.66
2022-12-04T21:04:20.926Z,58.67
2022-12-04T21:06:49.189Z,58.62
2022-12-04T21:09:19.765Z,58.77
2022-12-04T21:11:50.208Z,58.80
2022-12-04T21:14:39.019Z,58.72
2022-12-04T21:17:09.509Z,58.68
2022-12-04T21:19:38.032Z,58.58
2022-12-04T21:22:06.293Z,58.67
2022-12-04T21:24:38.668Z,58.63
2022-12-04T21:27:09.114Z,58.44
2022-12-04T21:29:39.273Z,58.43
2022-12-04T21:32:09.132Z,58.39
2022-12-04T21:34:37.152Z,58.38
2022-12-04T21:37:05.235Z,58.44
2022-12-04T21:39:33.835Z,58.45
2022-12-04T21:42:19.352Z,58.44
2022-12-04T21:44:48.735Z,58.09
2022-12-04T21:47:16.791Z,58.19
2022-12-04T21:49:45.179Z,58.19
2022-12-04T21:52:13.191Z,58.06
2022-12-04T21:54:41.208Z,58.06
2022-12-04T21:57:09.326Z,58.12
2022-12-04T21:59:37.409Z,58.09
2022-12-04T22:02:07.009Z,58.04
2022-12-04T22:04:35.125Z,57.87
2022-12-04T22:07:03.132Z,57.96
2022-12-04T22:09:31.194Z,58.00
2022-12-04T22:11:59.247Z,58.04
2022-12-04T22:14:27.328Z,58.06
2022-12-04T22:16:55.354Z,58.05
2022-12-04T22:19:24.760Z,57.95
2022-12-04T22:21:52.939Z,58.04
2022-12-04T22:24:21.005Z,58.16
2022-12-04T22:26:49.033Z,58.11
2022-12-04T22:29:48.631Z,58.19
2022-12-04T22:32:05.600Z,58.27
2022-12-04T22:34:35.340Z,58.29
2022-12-04T22:37:03.793Z,58.44
2022-12-04T22:39:33.555Z,58.44
2022-12-04T22:42:01.664Z,58.51
2022-12-04T22:44:29.775Z,58.45
2022-12-04T22:46:57.854Z,58.44
2022-12-04T22:49:25.911Z,58.52
2022-12-04T22:51:55.289Z,58.52
2022-12-04T22:54:23.385Z,58.46
2022-12-04T22:56:51.462Z,58.39
2022-12-04T22:59:19.436Z,58.41
2022-12-04T23:01:47.449Z,58.29
2022-12-04T23:04:15.515Z,58.35
2022-12-04T23:06:43.581Z,58.37
2022-12-04T23:09:15.228Z,58.28
2022-12-04T23:11:44.244Z,58.32
2022-12-04T23:14:14.621Z,58.29
2022-12-04T23:16:43.146Z,58.44
2022-12-04T23:19:14.551Z,58.41
2022-12-04T23:21:42.929Z,58.46
2022-12-04T23:24:13.225Z,58.66
2022-12-04T23:26:43.301Z,58.72
2022-12-04T23:29:29.794Z,58.78
2022-12-04T23:31:59.403Z,58.99
2022-12-04T23:34:28.260Z,58.99
2022-12-04T23:36:56.311Z,59.06
2022-12-04T23:39:25.740Z,59.10
2022-12-04T23:41:53.777Z,59.13
2022-12-04T23:44:21.813Z,59.19
2022-12-04T23:46:49.906Z,59.16
2022-12-04T23:49:18.101Z,59.32
2022-12-04T23:51:46.083Z,59.40
2022-12-04T23:54:14.153Z,59.51
2022-12-04T23:56:43.626Z,59.45
2022-12-04T23:59:11.680Z,59.46
